sensor_id;sensor_type;location;lat;lon;timestamp;P1;durP1;ratioP1;P2;durP2;ratioP2
41966;SDS011;27656;53.068;8.818;2022-07-06T00:00:15;6.63;;;1.40;;
41966;SDS011;27656;53.068;8.818;2022-07-06T00:02:42;5.23;;;1.43;;
41966;SDS011;27656;53.068;8.818;2022-07-06T00:05:09;6.23;;;1.53;;
41966;SDS011;27656;53.068;8.818;2022-07-06T00:07:35;5.07;;;1.50;;
41966;SDS011;27656;53.068;8.818;2022-07-06T00:10:02;4.83;;;1.67;;
41966;SDS011;27656;53.068;8.818;2022-07-06T00:12:29;4.37;;;2.03;;
41966;SDS011;27656;53.068;8.818;2022-07-06T00:14:55;4.70;;;1.60;;
41966;SDS011;27656;53.068;8.818;2022-07-06T00:17:22;4.70;;;1.40;;
41966;SDS011;27656;53.068;8.818;2022-07-06T00:19:48;8.87;;;1.70;;
41966;SDS011;27656;53.068;8.818;2022-07-06T00:22:15;6.10;;;1.50;;
41966;SDS011;27656;53.068;8.818;2022-07-06T00:24:41;5.60;;;1.73;;
41966;SDS011;27656;53.068;8.818;2022-07-06T00:27:08;3.23;;;1.70;;
41966;SDS011;27656;53.068;8.818;2022-07-06T00:29:34;6.60;;;1.80;;
41966;SDS011;27656;53.068;8.818;2022-07-06T00:32:01;5.80;;;1.43;;
41966;SDS011;27656;53.068;8.818;2022-07-06T00:34:28;6.63;;;1.67;;
41966;SDS011;27656;53.068;8.818;2022-07-06T00:36:54;4.13;;;1.80;;
41966;SDS011;27656;53.068;8.818;2022-07-06T00:39:21;5.77;;;1.87;;
41966;SDS011;27656;53.068;8.818;2022-07-06T00:41:48;5.57;;;1.73;;
41966;SDS011;27656;53.068;8.818;2022-07-06T00:44:14;5.17;;;1.53;;
41966;SDS011;27656;53.068;8.818;2022-07-06T00:46:41;7.20;;;2.27;;
41966;SDS011;27656;53.068;8.818;2022-07-06T00:49:07;10.90;;;1.80;;
41966;SDS011;27656;53.068;8.818;2022-07-06T00:51:54;6.63;;;2.13;;
41966;SDS011;27656;53.068;8.818;2022-07-06T00:54:21;7.20;;;1.80;;
41966;SDS011;27656;53.068;8.818;2022-07-06T00:56:47;4.90;;;1.70;;
41966;SDS011;27656;53.068;8.818;2022-07-06T00:59:14;8.53;;;1.77;;
41966;SDS011;27656;53.068;8.818;2022-07-06T01:01:40;3.83;;;1.53;;
41966;SDS011;27656;53.068;8.818;2022-07-06T01:04:07;6.20;;;1.80;;
41966;SDS011;27656;53.068;8.818;2022-07-06T01:06:34;8.43;;;2.33;;
41966;SDS011;27656;53.068;8.818;2022-07-06T01:09:00;7.63;;;1.97;;
41966;SDS011;27656;53.068;8.818;2022-07-06T01:11:27;6.47;;;1.70;;
41966;SDS011;27656;53.068;8.818;2022-07-06T01:13:53;6.37;;;2.00;;
41966;SDS011;27656;53.068;8.818;2022-07-06T01:16:21;7.53;;;1.70;;
41966;SDS011;27656;53.068;8.818;2022-07-06T01:18:47;6.00;;;1.73;;
41966;SDS011;27656;53.068;8.818;2022-07-06T01:21:14;5.33;;;1.40;;
41966;SDS011;27656;53.068;8.818;2022-07-06T01:23:42;6.40;;;1.90;;
41966;SDS011;27656;53.068;8.818;2022-07-06T01:26:09;10.90;;;2.47;;
41966;SDS011;27656;53.068;8.818;2022-07-06T01:28:37;7.97;;;1.87;;
41966;SDS011;27656;53.068;8.818;2022-07-06T01:31:04;7.00;;;1.70;;
41966;SDS011;27656;53.068;8.818;2022-07-06T01:33:30;10.67;;;1.93;;
41966;SDS011;27656;53.068;8.818;2022-07-06T01:35:57;6.67;;;1.80;;
41966;SDS011;27656;53.068;8.818;2022-07-06T01:38:24;4.47;;;1.63;;
41966;SDS011;27656;53.068;8.818;2022-07-06T01:40:50;5.60;;;1.70;;
41966;SDS011;27656;53.068;8.818;2022-07-06T01:43:17;2.80;;;1.40;;
41966;SDS011;27656;53.068;8.818;2022-07-06T01:45:43;5.90;;;1.87;;
41966;SDS011;27656;53.068;8.818;2022-07-06T01:48:10;4.27;;;1.40;;
41966;SDS011;27656;53.068;8.818;2022-07-06T01:50:36;5.77;;;1.50;;
41966;SDS011;27656;53.068;8.818;2022-07-06T01:53:03;5.87;;;1.67;;
41966;SDS011;27656;53.068;8.818;2022-07-06T01:55:30;6.27;;;2.07;;
41966;SDS011;27656;53.068;8.818;2022-07-06T01:57:56;6.00;;;2.03;;
41966;SDS011;27656;53.068;8.818;2022-07-06T02:00:23;4.93;;;1.80;;
41966;SDS011;27656;53.068;8.818;2022-07-06T02:02:49;11.87;;;1.90;;
41966;SDS011;27656;53.068;8.818;2022-07-06T02:05:16;12.37;;;2.27;;
41966;SDS011;27656;53.068;8.818;2022-07-06T02:07:42;6.93;;;1.70;;
41966;SDS011;27656;53.068;8.818;2022-07-06T02:10:09;3.97;;;1.50;;
41966;SDS011;27656;53.068;8.818;2022-07-06T02:12:36;6.63;;;2.00;;
41966;SDS011;27656;53.068;8.818;2022-07-06T02:15:02;7.83;;;2.20;;
41966;SDS011;27656;53.068;8.818;2022-07-06T02:17:29;11.63;;;2.00;;
41966;SDS011;27656;53.068;8.818;2022-07-06T02:19:56;6.80;;;1.80;;
41966;SDS011;27656;53.068;8.818;2022-07-06T02:22:22;9.87;;;1.80;;
41966;SDS011;27656;53.068;8.818;2022-07-06T02:24:48;5.47;;;1.70;;
41966;SDS011;27656;53.068;8.818;2022-07-06T02:27:15;9.13;;;2.10;;
41966;SDS011;27656;53.068;8.818;2022-07-06T02:29:41;7.87;;;1.90;;
41966;SDS011;27656;53.068;8.818;2022-07-06T02:32:08;7.73;;;1.73;;
41966;SDS011;27656;53.068;8.818;2022-07-06T02:34:35;4.03;;;2.07;;
41966;SDS011;27656;53.068;8.818;2022-07-06T02:37:01;4.67;;;1.90;;
41966;SDS011;27656;53.068;8.818;2022-07-06T02:39:28;7.20;;;1.80;;
41966;SDS011;27656;53.068;8.818;2022-07-06T02:41:54;11.33;;;2.17;;
41966;SDS011;27656;53.068;8.818;2022-07-06T02:44:20;7.33;;;1.90;;
41966;SDS011;27656;53.068;8.818;2022-07-06T02:46:47;4.10;;;1.80;;
41966;SDS011;27656;53.068;8.818;2022-07-06T02:49:13;10.47;;;1.90;;
41966;SDS011;27656;53.068;8.818;2022-07-06T02:51:40;6.07;;;1.70;;
41966;SDS011;27656;53.068;8.818;2022-07-06T02:54:06;6.57;;;1.70;;
41966;SDS011;27656;53.068;8.818;2022-07-06T02:56:33;11.13;;;1.87;;
41966;SDS011;27656;53.068;8.818;2022-07-06T02:58:59;3.53;;;1.50;;
41966;SDS011;27656;53.068;8.818;2022-07-06T03:01:26;4.33;;;1.70;;
41966;SDS011;27656;53.068;8.818;2022-07-06T03:03:53;5.43;;;1.67;;
41966;SDS011;27656;53.068;8.818;2022-07-06T03:06:20;7.67;;;2.40;;
41966;SDS011;27656;53.068;8.818;2022-07-06T03:08:46;4.67;;;1.80;;
41966;SDS011;27656;53.068;8.818;2022-07-06T03:11:12;5.33;;;1.93;;
41966;SDS011;27656;53.068;8.818;2022-07-06T03:13:39;8.83;;;2.60;;
41966;SDS011;27656;53.068;8.818;2022-07-06T03:16:05;9.83;;;1.93;;
41966;SDS011;27656;53.068;8.818;2022-07-06T03:18:32;5.10;;;2.00;;
41966;SDS011;27656;53.068;8.818;2022-07-06T03:20:59;4.27;;;1.90;;
41966;SDS011;27656;53.068;8.818;2022-07-06T03:23:25;4.97;;;2.17;;
41966;SDS011;27656;53.068;8.818;2022-07-06T03:25:52;10.40;;;2.20;;
41966;SDS011;27656;53.068;8.818;2022-07-06T03:28:18;7.40;;;2.00;;
41966;SDS011;27656;53.068;8.818;2022-07-06T03:30:46;5.67;;;1.50;;
41966;SDS011;27656;53.068;8.818;2022-07-06T03:33:12;7.60;;;2.10;;
41966;SDS011;27656;53.068;8.818;2022-07-06T03:35:39;4.83;;;2.00;;
41966;SDS011;27656;53.068;8.818;2022-07-06T03:38:05;6.67;;;2.53;;
41966;SDS011;27656;53.068;8.818;2022-07-06T03:40:31;5.83;;;1.93;;
41966;SDS011;27656;53.068;8.818;2022-07-06T03:42:58;6.50;;;1.93;;
41966;SDS011;27656;53.068;8.818;2022-07-06T03:45:24;8.30;;;1.93;;
41966;SDS011;27656;53.068;8.818;2022-07-06T03:47:51;3.67;;;1.73;;
41966;SDS011;27656;53.068;8.818;2022-07-06T03:50:17;9.27;;;1.83;;
41966;SDS011;27656;53.068;8.818;2022-07-06T03:52:44;6.40;;;1.80;;
41966;SDS011;27656;53.068;8.818;2022-07-06T03:55:11;8.00;;;1.70;;
41966;SDS011;27656;53.068;8.818;2022-07-06T03:57:38;9.60;;;2.00;;
41966;SDS011;27656;53.068;8.818;2022-07-06T04:00:07;4.97;;;1.77;;
41966;SDS011;27656;53.068;8.818;2022-07-06T04:02:34;7.83;;;2.07;;
41966;SDS011;27656;53.068;8.818;2022-07-06T04:05:01;6.83;;;1.83;;
41966;SDS011;27656;53.068;8.818;2022-07-06T04:07:27;8.73;;;1.87;;
41966;SDS011;27656;53.068;8.818;2022-07-06T04:09:54;6.00;;;1.67;;
41966;SDS011;27656;53.068;8.818;2022-07-06T04:12:20;6.73;;;2.00;;
41966;SDS011;27656;53.068;8.818;2022-07-06T04:14:47;5.83;;;1.70;;
41966;SDS011;27656;53.068;8.818;2022-07-06T04:17:13;4.73;;;1.63;;
41966;SDS011;27656;53.068;8.818;2022-07-06T04:19:59;9.27;;;2.03;;
41966;SDS011;27656;53.068;8.818;2022-07-06T04:22:25;9.23;;;1.97;;
41966;SDS011;27656;53.068;8.818;2022-07-06T04:24:52;4.73;;;1.57;;
41966;SDS011;27656;53.068;8.818;2022-07-06T04:27:18;8.07;;;1.67;;
41966;SDS011;27656;53.068;8.818;2022-07-06T04:29:45;4.87;;;1.80;;
41966;SDS011;27656;53.068;8.818;2022-07-06T04:32:11;6.17;;;2.03;;
41966;SDS011;27656;53.068;8.818;2022-07-06T04:34:37;16.07;;;1.90;;
41966;SDS011;27656;53.068;8.818;2022-07-06T04:37:04;8.20;;;1.33;;
41966;SDS011;27656;53.068;8.818;2022-07-06T04:39:30;10.43;;;2.13;;
41966;SDS011;27656;53.068;8.818;2022-07-06T04:41:58;9.17;;;1.93;;
41966;SDS011;27656;53.068;8.818;2022-07-06T04:44:24;4.83;;;1.70;;
41966;SDS011;27656;53.068;8.818;2022-07-06T04:46:51;6.73;;;1.53;;
41966;SDS011;27656;53.068;8.818;2022-07-06T04:49:17;4.30;;;1.90;;
41966;SDS011;27656;53.068;8.818;2022-07-06T04:51:44;6.27;;;1.67;;
41966;SDS011;27656;53.068;8.818;2022-07-06T04:54:10;12.23;;;1.87;;
41966;SDS011;27656;53.068;8.818;2022-07-06T04:56:37;5.97;;;1.80;;
41966;SDS011;27656;53.068;8.818;2022-07-06T04:59:03;7.57;;;1.27;;
41966;SDS011;27656;53.068;8.818;2022-07-06T05:01:30;7.03;;;1.77;;
41966;SDS011;27656;53.068;8.818;2022-07-06T05:03:57;5.87;;;1.43;;
41966;SDS011;27656;53.068;8.818;2022-07-06T05:06:23;6.60;;;1.30;;
41966;SDS011;27656;53.068;8.818;2022-07-06T05:08:50;5.57;;;1.53;;
41966;SDS011;27656;53.068;8.818;2022-07-06T05:11:16;5.27;;;1.60;;
41966;SDS011;27656;53.068;8.818;2022-07-06T05:13:43;8.37;;;1.87;;
41966;SDS011;27656;53.068;8.818;2022-07-06T05:16:09;5.13;;;1.43;;
41966;SDS011;27656;53.068;8.818;2022-07-06T05:18:36;3.37;;;1.10;;
41966;SDS011;27656;53.068;8.818;2022-07-06T05:21:03;3.13;;;1.43;;
41966;SDS011;27656;53.068;8.818;2022-07-06T05:23:29;6.03;;;1.60;;
41966;SDS011;27656;53.068;8.818;2022-07-06T05:25:56;4.50;;;1.40;;
41966;SDS011;27656;53.068;8.818;2022-07-06T05:28:22;9.87;;;1.40;;
41966;SDS011;27656;53.068;8.818;2022-07-06T05:30:49;5.93;;;1.57;;
41966;SDS011;27656;53.068;8.818;2022-07-06T05:33:16;5.53;;;1.30;;
41966;SDS011;27656;53.068;8.818;2022-07-06T05:35:42;4.90;;;1.20;;
41966;SDS011;27656;53.068;8.818;2022-07-06T05:38:17;7.43;;;1.70;;
41966;SDS011;27656;53.068;8.818;2022-07-06T05:40:44;6.87;;;1.13;;
41966;SDS011;27656;53.068;8.818;2022-07-06T05:43:11;5.10;;;1.37;;
41966;SDS011;27656;53.068;8.818;2022-07-06T05:45:38;4.43;;;1.40;;
41966;SDS011;27656;53.068;8.818;2022-07-06T05:48:04;4.80;;;1.20;;
41966;SDS011;27656;53.068;8.818;2022-07-06T05:50:50;4.50;;;1.23;;
41966;SDS011;27656;53.068;8.818;2022-07-06T05:53:17;5.77;;;1.27;;
41966;SDS011;27656;53.068;8.818;2022-07-06T05:55:45;4.70;;;1.20;;
41966;SDS011;27656;53.068;8.818;2022-07-06T05:58:12;5.90;;;1.50;;
41966;SDS011;27656;53.068;8.818;2022-07-06T06:00:39;12.23;;;1.17;;
41966;SDS011;27656;53.068;8.818;2022-07-06T06:03:06;6.77;;;1.30;;
41966;SDS011;27656;53.068;8.818;2022-07-06T06:05:32;8.43;;;1.40;;
41966;SDS011;27656;53.068;8.818;2022-07-06T06:07:59;6.27;;;1.40;;
41966;SDS011;27656;53.068;8.818;2022-07-06T06:10:25;6.53;;;1.03;;
41966;SDS011;27656;53.068;8.818;2022-07-06T06:12:52;6.13;;;1.20;;
41966;SDS011;27656;53.068;8.818;2022-07-06T06:15:19;8.67;;;1.80;;
41966;SDS011;27656;53.068;8.818;2022-07-06T06:17:45;9.87;;;1.60;;
41966;SDS011;27656;53.068;8.818;2022-07-06T06:20:13;3.87;;;1.20;;
41966;SDS011;27656;53.068;8.818;2022-07-06T06:22:47;7.30;;;1.27;;
41966;SDS011;27656;53.068;8.818;2022-07-06T06:25:15;5.77;;;1.83;;
41966;SDS011;27656;53.068;8.818;2022-07-06T06:27:42;5.93;;;1.30;;
41966;SDS011;27656;53.068;8.818;2022-07-06T06:30:09;6.80;;;1.30;;
41966;SDS011;27656;53.068;8.818;2022-07-06T06:32:36;7.13;;;1.70;;
41966;SDS011;27656;53.068;8.818;2022-07-06T06:35:03;1.80;;;0.80;;
41966;SDS011;27656;53.068;8.818;2022-07-06T06:37:31;7.80;;;1.10;;
41966;SDS011;27656;53.068;8.818;2022-07-06T06:39:58;5.00;;;1.33;;
41966;SDS011;27656;53.068;8.818;2022-07-06T06:42:24;4.90;;;1.23;;
41966;SDS011;27656;53.068;8.818;2022-07-06T06:44:51;7.27;;;1.40;;
41966;SDS011;27656;53.068;8.818;2022-07-06T06:47:18;7.90;;;1.40;;
41966;SDS011;27656;53.068;8.818;2022-07-06T06:49:46;8.70;;;1.30;;
41966;SDS011;27656;53.068;8.818;2022-07-06T06:52:12;6.10;;;1.40;;
41966;SDS011;27656;53.068;8.818;2022-07-06T06:54:59;6.40;;;1.20;;
41966;SDS011;27656;53.068;8.818;2022-07-06T06:57:26;4.87;;;1.30;;
41966;SDS011;27656;53.068;8.818;2022-07-06T06:59:55;5.67;;;1.10;;
41966;SDS011;27656;53.068;8.818;2022-07-06T07:02:21;4.53;;;1.50;;
41966;SDS011;27656;53.068;8.818;2022-07-06T07:04:48;4.57;;;1.20;;
41966;SDS011;27656;53.068;8.818;2022-07-06T07:07:15;10.33;;;1.10;;
41966;SDS011;27656;53.068;8.818;2022-07-06T07:09:41;6.17;;;1.13;;
41966;SDS011;27656;53.068;8.818;2022-07-06T07:12:08;6.80;;;1.27;;
41966;SDS011;27656;53.068;8.818;2022-07-06T07:14:36;5.33;;;0.93;;
41966;SDS011;27656;53.068;8.818;2022-07-06T07:17:02;6.47;;;0.90;;
41966;SDS011;27656;53.068;8.818;2022-07-06T07:19:29;4.17;;;1.13;;
41966;SDS011;27656;53.068;8.818;2022-07-06T07:21:56;5.70;;;1.00;;
41966;SDS011;27656;53.068;8.818;2022-07-06T07:24:22;4.00;;;1.10;;
41966;SDS011;27656;53.068;8.818;2022-07-06T07:26:49;6.77;;;1.10;;
41966;SDS011;27656;53.068;8.818;2022-07-06T07:29:15;5.57;;;1.20;;
41966;SDS011;27656;53.068;8.818;2022-07-06T07:31:42;4.80;;;1.00;;
41966;SDS011;27656;53.068;8.818;2022-07-06T07:34:08;4.80;;;1.07;;
41966;SDS011;27656;53.068;8.818;2022-07-06T07:36:35;4.60;;;0.93;;
41966;SDS011;27656;53.068;8.818;2022-07-06T07:39:01;5.97;;;0.93;;
41966;SDS011;27656;53.068;8.818;2022-07-06T07:41:28;3.77;;;0.80;;
41966;SDS011;27656;53.068;8.818;2022-07-06T07:43:55;3.53;;;0.83;;
41966;SDS011;27656;53.068;8.818;2022-07-06T07:46:22;10.83;;;1.63;;
41966;SDS011;27656;53.068;8.818;2022-07-06T07:48:49;3.77;;;0.83;;
41966;SDS011;27656;53.068;8.818;2022-07-06T07:51:15;6.97;;;0.70;;
41966;SDS011;27656;53.068;8.818;2022-07-06T07:53:42;6.73;;;1.00;;
41966;SDS011;27656;53.068;8.818;2022-07-06T07:56:08;5.27;;;0.90;;
41966;SDS011;27656;53.068;8.818;2022-07-06T07:58:35;2.83;;;0.97;;
41966;SDS011;27656;53.068;8.818;2022-07-06T08:01:02;3.83;;;1.10;;
41966;SDS011;27656;53.068;8.818;2022-07-06T08:03:29;3.13;;;0.80;;
41966;SDS011;27656;53.068;8.818;2022-07-06T08:05:56;5.67;;;0.70;;
41966;SDS011;27656;53.068;8.818;2022-07-06T08:08:23;2.43;;;0.60;;
41966;SDS011;27656;53.068;8.818;2022-07-06T08:10:51;5.00;;;0.90;;
41966;SDS011;27656;53.068;8.818;2022-07-06T08:13:38;2.43;;;0.50;;
41966;SDS011;27656;53.068;8.818;2022-07-06T08:16:05;8.10;;;0.97;;
41966;SDS011;27656;53.068;8.818;2022-07-06T08:18:31;3.67;;;0.80;;
41966;SDS011;27656;53.068;8.818;2022-07-06T08:20:58;2.07;;;0.70;;
41966;SDS011;27656;53.068;8.818;2022-07-06T08:23:45;4.17;;;0.70;;
41966;SDS011;27656;53.068;8.818;2022-07-06T08:26:12;4.07;;;0.60;;
41966;SDS011;27656;53.068;8.818;2022-07-06T08:28:43;2.93;;;0.90;;
41966;SDS011;27656;53.068;8.818;2022-07-06T08:31:09;3.67;;;0.63;;
41966;SDS011;27656;53.068;8.818;2022-07-06T08:33:56;5.50;;;0.90;;
41966;SDS011;27656;53.068;8.818;2022-07-06T08:36:22;3.40;;;0.80;;
41966;SDS011;27656;53.068;8.818;2022-07-06T08:38:50;2.13;;;0.60;;
41966;SDS011;27656;53.068;8.818;2022-07-06T08:41:16;5.10;;;1.00;;
41966;SDS011;27656;53.068;8.818;2022-07-06T08:43:50;2.20;;;0.60;;
41966;SDS011;27656;53.068;8.818;2022-07-06T08:46:18;4.63;;;0.83;;
41966;SDS011;27656;53.068;8.818;2022-07-06T08:48:46;2.27;;;0.60;;
41966;SDS011;27656;53.068;8.818;2022-07-06T08:51:13;3.23;;;0.80;;
41966;SDS011;27656;53.068;8.818;2022-07-06T08:53:44;3.50;;;0.80;;
41966;SDS011;27656;53.068;8.818;2022-07-06T08:56:11;5.73;;;0.53;;
41966;SDS011;27656;53.068;8.818;2022-07-06T08:58:38;4.57;;;0.80;;
41966;SDS011;27656;53.068;8.818;2022-07-06T09:01:11;6.83;;;1.03;;
41966;SDS011;27656;53.068;8.818;2022-07-06T09:03:41;1.97;;;0.60;;
41966;SDS011;27656;53.068;8.818;2022-07-06T09:06:10;4.27;;;0.70;;
41966;SDS011;27656;53.068;8.818;2022-07-06T09:08:36;6.00;;;0.50;;
41966;SDS011;27656;53.068;8.818;2022-07-06T09:11:03;7.57;;;0.90;;
41966;SDS011;27656;53.068;8.818;2022-07-06T09:13:30;0.93;;;0.40;;
41966;SDS011;27656;53.068;8.818;2022-07-06T09:16:08;4.67;;;0.60;;
41966;SDS011;27656;53.068;8.818;2022-07-06T09:18:55;1.87;;;0.57;;
41966;SDS011;27656;53.068;8.818;2022-07-06T09:21:23;3.97;;;0.83;;
41966;SDS011;27656;53.068;8.818;2022-07-06T09:23:55;2.60;;;0.70;;
41966;SDS011;27656;53.068;8.818;2022-07-06T09:26:23;1.43;;;0.57;;
41966;SDS011;27656;53.068;8.818;2022-07-06T09:28:50;3.63;;;0.83;;
41966;SDS011;27656;53.068;8.818;2022-07-06T09:31:17;6.00;;;1.27;;
41966;SDS011;27656;53.068;8.818;2022-07-06T09:33:53;5.93;;;1.33;;
41966;SDS011;27656;53.068;8.818;2022-07-06T09:39:27;4.37;;;1.20;;
41966;SDS011;27656;53.068;8.818;2022-07-06T09:41:56;8.40;;;1.00;;
41966;SDS011;27656;53.068;8.818;2022-07-06T09:44:24;6.20;;;1.00;;
41966;SDS011;27656;53.068;8.818;2022-07-06T09:46:55;6.37;;;0.93;;
41966;SDS011;27656;53.068;8.818;2022-07-06T09:49:23;4.33;;;0.80;;
41966;SDS011;27656;53.068;8.818;2022-07-06T09:51:51;7.00;;;0.73;;
41966;SDS011;27656;53.068;8.818;2022-07-06T09:54:19;4.70;;;0.70;;
41966;SDS011;27656;53.068;8.818;2022-07-06T09:56:46;2.60;;;0.60;;
41966;SDS011;27656;53.068;8.818;2022-07-06T09:59:19;1.93;;;0.50;;
41966;SDS011;27656;53.068;8.818;2022-07-06T10:01:49;1.50;;;0.67;;
41966;SDS011;27656;53.068;8.818;2022-07-06T10:04:18;2.33;;;0.67;;
41966;SDS011;27656;53.068;8.818;2022-07-06T10:06:47;3.27;;;0.50;;
41966;SDS011;27656;53.068;8.818;2022-07-06T10:09:14;2.60;;;0.60;;
41966;SDS011;27656;53.068;8.818;2022-07-06T10:11:47;2.23;;;0.40;;
41966;SDS011;27656;53.068;8.818;2022-07-06T10:14:17;3.03;;;0.60;;
41966;SDS011;27656;53.068;8.818;2022-07-06T10:16:46;3.97;;;0.63;;
41966;SDS011;27656;53.068;8.818;2022-07-06T10:19:14;1.67;;;0.73;;
41966;SDS011;27656;53.068;8.818;2022-07-06T10:21:41;1.20;;;0.40;;
41966;SDS011;27656;53.068;8.818;2022-07-06T10:24:08;3.47;;;0.47;;
41966;SDS011;27656;53.068;8.818;2022-07-06T10:26:35;2.37;;;0.60;;
41966;SDS011;27656;53.068;8.818;2022-07-06T10:29:03;2.10;;;0.40;;
41966;SDS011;27656;53.068;8.818;2022-07-06T10:31:30;3.57;;;0.70;;
41966;SDS011;27656;53.068;8.818;2022-07-06T10:33:59;3.90;;;0.70;;
41966;SDS011;27656;53.068;8.818;2022-07-06T10:36:27;1.33;;;0.47;;
41966;SDS011;27656;53.068;8.818;2022-07-06T10:38:54;1.97;;;0.90;;
41966;SDS011;27656;53.068;8.818;2022-07-06T10:41:33;5.00;;;0.60;;
41966;SDS011;27656;53.068;8.818;2022-07-06T10:44:22;2.33;;;0.47;;
41966;SDS011;27656;53.068;8.818;2022-07-06T10:46:56;1.97;;;0.47;;
41966;SDS011;27656;53.068;8.818;2022-07-06T10:49:24;8.60;;;1.30;;
41966;SDS011;27656;53.068;8.818;2022-07-06T10:52:14;3.07;;;0.80;;
41966;SDS011;27656;53.068;8.818;2022-07-06T10:54:43;5.13;;;1.00;;
41966;SDS011;27656;53.068;8.818;2022-07-06T10:57:10;5.17;;;0.90;;
41966;SDS011;27656;53.068;8.818;2022-07-06T10:59:38;3.87;;;0.93;;
41966;SDS011;27656;53.068;8.818;2022-07-06T11:04:41;1.83;;;0.60;;
41966;SDS011;27656;53.068;8.818;2022-07-06T11:07:12;2.67;;;0.50;;
41966;SDS011;27656;53.068;8.818;2022-07-06T11:09:40;2.50;;;0.50;;
41966;SDS011;27656;53.068;8.818;2022-07-06T11:12:17;3.33;;;0.60;;
41966;SDS011;27656;53.068;8.818;2022-07-06T11:14:48;1.13;;;0.50;;
41966;SDS011;27656;53.068;8.818;2022-07-06T11:17:15;1.83;;;0.50;;
41966;SDS011;27656;53.068;8.818;2022-07-06T11:22:22;5.40;;;1.10;;
41966;SDS011;27656;53.068;8.818;2022-07-06T11:24:50;3.33;;;1.00;;
41966;SDS011;27656;53.068;8.818;2022-07-06T11:27:22;2.30;;;0.60;;
41966;SDS011;27656;53.068;8.818;2022-07-06T11:29:49;4.03;;;0.70;;
41966;SDS011;27656;53.068;8.818;2022-07-06T11:32:15;4.93;;;0.70;;
41966;SDS011;27656;53.068;8.818;2022-07-06T11:34:50;3.00;;;0.57;;
41966;SDS011;27656;53.068;8.818;2022-07-06T11:37:16;4.70;;;0.70;;
41966;SDS011;27656;53.068;8.818;2022-07-06T11:39:47;5.37;;;0.60;;
41966;SDS011;27656;53.068;8.818;2022-07-06T11:42:15;2.57;;;0.83;;
41966;SDS011;27656;53.068;8.818;2022-07-06T11:44:44;4.93;;;0.90;;
41966;SDS011;27656;53.068;8.818;2022-07-06T11:47:11;3.33;;;0.70;;
41966;SDS011;27656;53.068;8.818;2022-07-06T11:49:39;1.57;;;0.60;;
41966;SDS011;27656;53.068;8.818;2022-07-06T11:52:07;3.23;;;0.60;;
41966;SDS011;27656;53.068;8.818;2022-07-06T11:54:34;2.40;;;0.60;;
41966;SDS011;27656;53.068;8.818;2022-07-06T11:57:01;4.20;;;0.80;;
41966;SDS011;27656;53.068;8.818;2022-07-06T11:59:33;1.40;;;0.47;;
41966;SDS011;27656;53.068;8.818;2022-07-06T12:04:32;3.40;;;0.40;;
41966;SDS011;27656;53.068;8.818;2022-07-06T12:07:00;2.67;;;0.53;;
41966;SDS011;27656;53.068;8.818;2022-07-06T12:09:31;5.07;;;0.40;;
41966;SDS011;27656;53.068;8.818;2022-07-06T12:11:59;2.13;;;0.57;;
41966;SDS011;27656;53.068;8.818;2022-07-06T12:14:32;5.73;;;0.63;;
41966;SDS011;27656;53.068;8.818;2022-07-06T12:17:03;0.97;;;0.47;;
41966;SDS011;27656;53.068;8.818;2022-07-06T12:19:32;2.43;;;0.50;;
41966;SDS011;27656;53.068;8.818;2022-07-06T12:21:59;3.67;;;0.70;;
41966;SDS011;27656;53.068;8.818;2022-07-06T12:24:28;3.27;;;0.50;;
41966;SDS011;27656;53.068;8.818;2022-07-06T12:26:57;1.93;;;0.60;;
41966;SDS011;27656;53.068;8.818;2022-07-06T12:29:25;2.43;;;0.50;;
41966;SDS011;27656;53.068;8.818;2022-07-06T12:31:53;4.30;;;0.50;;
41966;SDS011;27656;53.068;8.818;2022-07-06T12:34:22;4.93;;;0.60;;
41966;SDS011;27656;53.068;8.818;2022-07-06T12:36:50;3.57;;;0.70;;
41966;SDS011;27656;53.068;8.818;2022-07-06T12:39:19;2.73;;;0.50;;
41966;SDS011;27656;53.068;8.818;2022-07-06T12:44:17;4.47;;;0.60;;
41966;SDS011;27656;53.068;8.818;2022-07-06T12:46:45;1.47;;;0.50;;
41966;SDS011;27656;53.068;8.818;2022-07-06T12:49:21;3.07;;;0.50;;
41966;SDS011;27656;53.068;8.818;2022-07-06T12:51:53;4.00;;;0.50;;
41966;SDS011;27656;53.068;8.818;2022-07-06T12:54:29;2.17;;;0.50;;
41966;SDS011;27656;53.068;8.818;2022-07-06T12:59:33;6.43;;;1.03;;
41966;SDS011;27656;53.068;8.818;2022-07-06T13:02:01;3.77;;;0.80;;
41966;SDS011;27656;53.068;8.818;2022-07-06T13:04:29;1.53;;;0.50;;
41966;SDS011;27656;53.068;8.818;2022-07-06T13:06:56;2.07;;;0.50;;
41966;SDS011;27656;53.068;8.818;2022-07-06T13:09:26;3.77;;;0.90;;
41966;SDS011;27656;53.068;8.818;2022-07-06T13:11:53;3.50;;;0.50;;
41966;SDS011;27656;53.068;8.818;2022-07-06T13:14:19;4.77;;;0.70;;
41966;SDS011;27656;53.068;8.818;2022-07-06T13:16:46;1.83;;;0.70;;
41966;SDS011;27656;53.068;8.818;2022-07-06T13:19:14;2.60;;;0.60;;
41966;SDS011;27656;53.068;8.818;2022-07-06T13:21:40;1.97;;;0.67;;
41966;SDS011;27656;53.068;8.818;2022-07-06T13:24:10;2.30;;;0.60;;
41966;SDS011;27656;53.068;8.818;2022-07-06T13:26:37;3.67;;;1.00;;
41966;SDS011;27656;53.068;8.818;2022-07-06T13:29:03;3.03;;;1.00;;
41966;SDS011;27656;53.068;8.818;2022-07-06T13:31:30;6.37;;;0.63;;
41966;SDS011;27656;53.068;8.818;2022-07-06T13:33:57;3.23;;;0.63;;
41966;SDS011;27656;53.068;8.818;2022-07-06T13:36:23;2.67;;;0.63;;
41966;SDS011;27656;53.068;8.818;2022-07-06T13:38:50;3.63;;;0.70;;
41966;SDS011;27656;53.068;8.818;2022-07-06T13:41:16;4.63;;;0.67;;
41966;SDS011;27656;53.068;8.818;2022-07-06T13:43:43;5.90;;;0.73;;
41966;SDS011;27656;53.068;8.818;2022-07-06T13:46:09;2.00;;;0.50;;
41966;SDS011;27656;53.068;8.818;2022-07-06T13:48:37;3.93;;;0.63;;
41966;SDS011;27656;53.068;8.818;2022-07-06T13:51:03;5.03;;;0.60;;
41966;SDS011;27656;53.068;8.818;2022-07-06T13:53:30;8.53;;;0.70;;
41966;SDS011;27656;53.068;8.818;2022-07-06T13:55:58;4.10;;;0.70;;
41966;SDS011;27656;53.068;8.818;2022-07-06T13:58:25;1.63;;;0.50;;
41966;SDS011;27656;53.068;8.818;2022-07-06T14:00:51;4.63;;;0.60;;
41966;SDS011;27656;53.068;8.818;2022-07-06T14:03:18;8.07;;;0.70;;
41966;SDS011;27656;53.068;8.818;2022-07-06T14:05:45;6.00;;;0.70;;
41966;SDS011;27656;53.068;8.818;2022-07-06T14:08:11;4.80;;;0.60;;
41966;SDS011;27656;53.068;8.818;2022-07-06T14:10:38;2.47;;;0.50;;
41966;SDS011;27656;53.068;8.818;2022-07-06T14:13:05;1.63;;;0.50;;
41966;SDS011;27656;53.068;8.818;2022-07-06T14:15:31;2.77;;;0.40;;
41966;SDS011;27656;53.068;8.818;2022-07-06T14:17:58;2.43;;;0.50;;
41966;SDS011;27656;53.068;8.818;2022-07-06T14:20:25;0.70;;;0.20;;
41966;SDS011;27656;53.068;8.818;2022-07-06T14:22:51;0.67;;;0.30;;
41966;SDS011;27656;53.068;8.818;2022-07-06T14:25:18;3.13;;;0.70;;
41966;SDS011;27656;53.068;8.818;2022-07-06T14:27:44;5.63;;;0.50;;
41966;SDS011;27656;53.068;8.818;2022-07-06T14:30:12;5.40;;;0.60;;
41966;SDS011;27656;53.068;8.818;2022-07-06T14:32:39;2.20;;;0.70;;
41966;SDS011;27656;53.068;8.818;2022-07-06T14:35:06;1.80;;;0.40;;
41966;SDS011;27656;53.068;8.818;2022-07-06T14:37:32;2.27;;;0.40;;
41966;SDS011;27656;53.068;8.818;2022-07-06T14:39:59;6.40;;;0.53;;
41966;SDS011;27656;53.068;8.818;2022-07-06T14:42:26;3.27;;;0.57;;
41966;SDS011;27656;53.068;8.818;2022-07-06T14:44:52;1.03;;;0.40;;
41966;SDS011;27656;53.068;8.818;2022-07-06T14:47:19;2.97;;;0.50;;
41966;SDS011;27656;53.068;8.818;2022-07-06T14:49:45;3.00;;;0.57;;
41966;SDS011;27656;53.068;8.818;2022-07-06T14:52:12;2.67;;;0.90;;
41966;SDS011;27656;53.068;8.818;2022-07-06T14:54:38;3.20;;;0.53;;
41966;SDS011;27656;53.068;8.818;2022-07-06T14:57:05;3.30;;;0.50;;
41966;SDS011;27656;53.068;8.818;2022-07-06T14:59:34;5.17;;;0.67;;
41966;SDS011;27656;53.068;8.818;2022-07-06T15:02:01;4.73;;;0.50;;
41966;SDS011;27656;53.068;8.818;2022-07-06T15:04:29;2.47;;;0.70;;
41966;SDS011;27656;53.068;8.818;2022-07-06T15:06:56;4.73;;;0.67;;